Time;durP1;ratioP1;P1;durP2;ratioP2;P2;SDS_P1;SDS_P2;PMS_P1;PMS_P2;Temp;Humidity;BMP_temperature;BMP_pressure;BME280_temperature;BME280_humidity;BME280_pressure;Samples;Min_cycle;Max_cycle;Signal;HPM_P1;HPM_P2
2022/05/10 00:01:37;;;;;;;4.50;4.20;;;;;;;;;;5066411;28;20587;-55
2022/05/10 00:04:17;;;;;;;4.68;4.10;;;;;;;;;;5132497;27;20677;-55
2022/05/10 00:06:57;;;;;;;3.97;3.78;;;;;;;;;;5095462;27;20698;-55
2022/05/10 00:09:36;;;;;;;4.10;3.80;;;;;;;;;;5081528;27;20561;-55
2022/05/10 00:12:16;;;;;;;4.18;3.95;;;;;;;;;;5081079;27;21048;-55
2022/05/10 00:14:56;;;;;;;3.90;3.70;;;;;;;;;;5062085;27;21201;-55
2022/05/10 00:17:37;;;;;;;4.07;3.78;;;;;;;;;;5122342;27;20544;-55
2022/05/10 00:20:19;;;;;;;4.28;3.88;;;;;;;;;;5099616;27;21060;-55
2022/05/10 00:22:59;;;;;;;4.57;4.30;;;;;;;;;;5083172;27;20557;-55
2022/05/10 00:25:39;;;;;;;4.00;3.80;;;;;;;;;;5080610;27;20801;-55
2022/05/10 00:28:18;;;;;;;4.05;3.85;;;;;;;;;;5081543;27;21039;-55
2022/05/10 00:30:58;;;;;;;3.85;3.40;;;;;;;;;;5071118;27;20689;-55
2022/05/10 00:33:38;;;;;;;3.50;3.30;;;;;;;;;;5144511;27;20885;-56
2022/05/10 00:36:19;;;;;;;4.35;4.05;;;;;;;;;;5080875;28;20687;-55
2022/05/10 00:38:59;;;;;;;3.88;3.67;;;;;;;;;;5081301;27;21031;-55
2022/05/10 00:41:44;;;;;;;3.03;2.83;;;;;;;;;;5064231;28;20560;-55
2022/05/10 00:44:25;;;;;;;3.50;3.28;;;;;;;;;;5082554;27;20551;-55
2022/05/10 00:47:08;;;;;;;3.90;3.70;;;;;;;;;;5074516;28;20682;-55
2022/05/10 00:49:54;;;;;;;4.45;4.22;;;;;;;;;;5154250;27;20547;-56
2022/05/10 00:52:38;;;;;;;4.60;4.30;;;;;;;;;;5117651;27;20555;-55
2022/05/10 00:55:21;;;;;;;3.60;3.40;;;;;;;;;;5135996;27;20602;-56
2022/05/10 00:58:05;;;;;;;4.10;3.80;;;;;;;;;;5115499;27;21015;-55
2022/05/10 01:00:45;;;;;;;4.00;3.80;;;;;;;;;;5072699;28;20693;-55
2022/05/10 01:03:27;;;;;;;4.50;4.20;;;;;;;;;;5082192;28;21071;-55
2022/05/10 01:06:10;;;;;;;4.55;4.25;;;;;;;;;;5110042;27;20556;-55
2022/05/10 01:08:57;;;;;;;4.30;4.00;;;;;;;;;;5080987;28;20805;-55
2022/05/10 01:11:40;;;;;;;4.10;3.90;;;;;;;;;;5152066;27;20599;-54
2022/05/10 01:14:21;;;;;;;4.38;4.03;;;;;;;;;;5099724;27;20637;-55
2022/05/10 01:17:02;;;;;;;4.70;4.30;;;;;;;;;;5067652;27;21089;-55
2022/05/10 01:19:42;;;;;;;4.80;4.50;;;;;;;;;;5069113;27;20577;-55
2022/05/10 01:22:33;;;;;;;4.40;4.13;;;;;;;;;;5082285;27;20676;-55
2022/05/10 01:25:21;;;;;;;3.20;3.00;;;;;;;;;;5070045;27;20579;-55
2022/05/10 01:28:18;;;;;;;2.47;2.28;;;;;;;;;;5080808;28;20672;-55
2022/05/10 01:31:00;;;;;;;2.70;2.50;;;;;;;;;;5082739;27;20582;-56
2022/05/10 01:33:42;;;;;;;2.35;2.25;;;;;;;;;;5101646;27;20988;-55
2022/05/10 01:36:26;;;;;;;3.38;3.17;;;;;;;;;;5067881;27;20559;-55
2022/05/10 01:39:09;;;;;;;3.33;3.03;;;;;;;;;;5081517;27;20564;-55
2022/05/10 01:41:54;;;;;;;3.00;2.90;;;;;;;;;;5063297;27;20586;-55
2022/05/10 01:44:37;;;;;;;3.97;3.67;;;;;;;;;;5113712;27;20553;-55
2022/05/10 01:47:22;;;;;;;3.47;3.28;;;;;;;;;;5074690;27;20687;-54
2022/05/10 01:50:04;;;;;;;3.88;3.58;;;;;;;;;;5070256;28;20712;-56
2022/05/10 01:52:46;;;;;;;6.90;2.90;;;;;;;;;;5067231;27;20700;-55
2022/05/10 01:55:29;;;;;;;3.72;3.42;;;;;;;;;;5073696;27;21281;-55
2022/05/10 01:58:11;;;;;;;3.70;3.50;;;;;;;;;;5100256;27;20565;-56
2022/05/10 02:00:55;;;;;;;4.72;3.40;;;;;;;;;;5071541;28;20686;-55
2022/05/10 02:03:39;;;;;;;3.42;3.22;;;;;;;;;;5124005;27;20548;-56
2022/05/10 02:06:22;;;;;;;4.18;3.58;;;;;;;;;;5122706;27;20574;-56
2022/05/10 02:09:05;;;;;;;3.20;3.05;;;;;;;;;;5136197;27;20881;-54
2022/05/10 02:11:49;;;;;;;2.85;2.40;;;;;;;;;;5045813;28;20574;-55
2022/05/10 02:14:31;;;;;;;2.42;2.30;;;;;;;;;;5133014;27;20669;-55
2022/05/10 02:17:15;;;;;;;2.47;2.38;;;;;;;;;;5081403;27;20819;-55
2022/05/10 02:19:58;;;;;;;2.28;2.17;;;;;;;;;;5080194;28;20597;-55
2022/05/10 02:22:41;;;;;;;3.17;2.97;;;;;;;;;;5124298;27;20544;-55
2022/05/10 02:25:24;;;;;;;3.22;2.92;;;;;;;;;;5137008;27;20558;-55
2022/05/10 02:28:07;;;;;;;3.03;2.78;;;;;;;;;;5077566;28;20675;-55
2022/05/10 02:30:47;;;;;;;3.10;2.80;;;;;;;;;;5081263;27;20683;-55
2022/05/10 02:33:29;;;;;;;2.90;2.70;;;;;;;;;;5083368;28;20676;-55
2022/05/10 02:36:10;;;;;;;3.22;3.03;;;;;;;;;;5082254;27;20571;-54
2022/05/10 02:38:50;;;;;;;3.40;3.20;;;;;;;;;;5123533;27;20548;-55
2022/05/10 02:41:31;;;;;;;3.38;3.08;;;;;;;;;;5123439;27;20559;-55
2022/05/10 02:44:11;;;;;;;2.90;2.70;;;;;;;;;;5124033;27;20601;-55
2022/05/10 02:46:51;;;;;;;3.08;2.88;;;;;;;;;;5081889;28;20943;-55
2022/05/10 02:49:31;;;;;;;3.60;2.95;;;;;;;;;;5102247;27;20568;-55
2022/05/10 02:52:11;;;;;;;3.00;2.80;;;;;;;;;;5097857;27;20589;-55
2022/05/10 02:54:55;;;;;;;3.17;2.97;;;;;;;;;;5082769;28;20544;-56
2022/05/10 02:57:35;;;;;;;3.50;2.67;;;;;;;;;;5144492;27;20539;-55
2022/05/10 03:00:15;;;;;;;3.30;3.10;;;;;;;;;;5084074;27;20568;-55
2022/05/10 03:03:00;;;;;;;2.88;2.72;;;;;;;;;;5129330;27;20674;-55
2022/05/10 03:05:40;;;;;;;3.10;2.90;;;;;;;;;;5082337;27;21009;-55
2022/05/10 03:08:20;;;;;;;3.75;2.90;;;;;;;;;;5083432;28;20547;-55
2022/05/10 03:10:59;;;;;;;3.30;3.10;;;;;;;;;;5081805;27;20571;-56
2022/05/10 03:13:39;;;;;;;3.15;2.97;;;;;;;;;;5083466;28;20672;-55
2022/05/10 03:16:19;;;;;;;2.95;2.58;;;;;;;;;;5081389;28;20668;-55
2022/05/10 03:18:58;;;;;;;5.13;2.72;;;;;;;;;;5075482;27;20603;-55
2022/05/10 03:21:40;;;;;;;2.92;2.72;;;;;;;;;;5084208;27;20601;-55
2022/05/10 03:24:20;;;;;;;3.58;3.38;;;;;;;;;;5082556;27;20564;-54
2022/05/10 03:27:01;;;;;;;3.50;3.30;;;;;;;;;;5079387;28;20605;-55
2022/05/10 03:29:41;;;;;;;3.80;3.47;;;;;;;;;;5083022;27;20547;-55
2022/05/10 03:32:21;;;;;;;3.30;3.10;;;;;;;;;;5082833;27;20561;-55
2022/05/10 03:35:01;;;;;;;3.83;3.53;;;;;;;;;;5102988;27;20582;-56
2022/05/10 03:37:41;;;;;;;4.47;3.60;;;;;;;;;;5103931;27;20914;-56
2022/05/10 03:40:20;;;;;;;4.20;3.88;;;;;;;;;;5081894;28;20673;-55
2022/05/10 03:43:01;;;;;;;4.38;4.03;;;;;;;;;;5082791;28;20676;-55
2022/05/10 03:45:40;;;;;;;3.90;3.65;;;;;;;;;;5080685;28;20676;-55
2022/05/10 03:48:20;;;;;;;4.15;3.85;;;;;;;;;;5081725;28;20660;-55
2022/05/10 03:51:00;;;;;;;4.38;4.07;;;;;;;;;;5075718;27;20569;-55
2022/05/10 03:53:39;;;;;;;3.75;3.45;;;;;;;;;;5090836;27;20687;-54
2022/05/10 03:56:19;;;;;;;4.13;3.85;;;;;;;;;;5099214;27;20585;-55
2022/05/10 03:58:59;;;;;;;3.88;3.58;;;;;;;;;;5081867;28;20695;-54
2022/05/10 04:01:41;;;;;;;4.30;3.83;;;;;;;;;;5053248;27;21113;-55
2022/05/10 04:04:20;;;;;;;3.83;3.63;;;;;;;;;;5081167;28;20551;-56
2022/05/10 04:07:00;;;;;;;4.30;4.10;;;;;;;;;;5081701;27;20557;-55
2022/05/10 04:09:40;;;;;;;4.55;4.18;;;;;;;;;;5134922;27;20960;-55
2022/05/10 04:12:20;;;;;;;4.22;3.88;;;;;;;;;;5113095;27;20905;-55
2022/05/10 04:15:00;;;;;;;3.65;3.45;;;;;;;;;;5077608;27;21031;-56
2022/05/10 04:17:39;;;;;;;3.75;3.47;;;;;;;;;;5075866;28;20621;-55
2022/05/10 04:20:19;;;;;;;3.33;3.08;;;;;;;;;;5088982;27;20653;-56
2022/05/10 04:23:00;;;;;;;10.18;3.97;;;;;;;;;;5079896;27;20584;-55
2022/05/10 04:25:41;;;;;;;3.85;3.38;;;;;;;;;;5099656;27;21089;-58
2022/05/10 04:28:20;;;;;;;4.43;4.13;;;;;;;;;;5100923;27;20595;-56
2022/05/10 04:31:00;;;;;;;5.95;3.92;;;;;;;;;;5069748;27;20579;-56
2022/05/10 04:33:40;;;;;;;6.03;5.28;;;;;;;;;;5095306;27;20917;-56
2022/05/10 04:36:22;;;;;;;5.28;4.82;;;;;;;;;;5098833;27;20651;-54
2022/05/10 04:39:03;;;;;;;5.68;5.38;;;;;;;;;;5080865;28;21043;-56
2022/05/10 04:41:47;;;;;;;5.50;5.20;;;;;;;;;;5085748;27;21215;-56
2022/05/10 04:44:27;;;;;;;6.28;5.78;;;;;;;;;;5082050;27;20560;-56
2022/05/10 04:47:07;;;;;;;8.60;8.02;;;;;;;;;;5142418;27;20562;-56
2022/05/10 04:49:47;;;;;;;9.13;8.43;;;;;;;;;;5136372;27;20675;-56
2022/05/10 04:52:27;;;;;;;6.57;6.18;;;;;;;;;;5081858;27;20592;-56
2022/05/10 04:55:07;;;;;;;5.78;5.28;;;;;;;;;;5121196;27;20555;-57
2022/05/10 04:57:48;;;;;;;6.00;5.60;;;;;;;;;;5119853;27;20544;-55
2022/05/10 05:00:34;;;;;;;6.43;6.07;;;;;;;;;;5116014;27;20557;-56
2022/05/10 05:03:14;;;;;;;6.07;5.57;;;;;;;;;;5081790;28;20597;-56
2022/05/10 05:05:54;;;;;;;5.63;5.32;;;;;;;;;;5080111;27;20965;-56
2022/05/10 05:08:34;;;;;;;6.32;5.93;;;;;;;;;;5143715;27;20902;-56
2022/05/10 05:11:14;;;;;;;5.85;5.55;;;;;;;;;;5144045;27;20546;-56
2022/05/10 05:13:54;;;;;;;6.45;6.03;;;;;;;;;;5101484;27;20568;-57
2022/05/10 05:16:33;;;;;;;6.57;5.95;;;;;;;;;;5080365;27;20542;-56
2022/05/10 05:19:13;;;;;;;6.38;5.88;;;;;;;;;;5121713;27;20547;-56
2022/05/10 05:21:53;;;;;;;6.68;6.22;;;;;;;;;;5072730;27;20595;-56
2022/05/10 05:24:33;;;;;;;6.43;6.03;;;;;;;;;;5101637;27;20926;-56
2022/05/10 05:27:13;;;;;;;6.60;6.10;;;;;;;;;;5080162;27;20554;-56
2022/05/10 05:29:52;;;;;;;6.00;5.60;;;;;;;;;;5101070;27;20546;-57
2022/05/10 05:32:34;;;;;;;6.50;6.03;;;;;;;;;;5122795;27;20536;-56
2022/05/10 05:35:14;;;;;;;6.85;6.00;;;;;;;;;;5101006;27;21098;-57
2022/05/10 05:37:54;;;;;;;6.20;5.70;;;;;;;;;;5102253;27;20977;-56
2022/05/10 05:40:34;;;;;;;7.20;6.50;;;;;;;;;;5078147;28;20682;-56
2022/05/10 05:43:18;;;;;;;5.75;5.40;;;;;;;;;;5088890;27;21055;-56
2022/05/10 05:45:58;;;;;;;6.05;5.65;;;;;;;;;;5067290;27;21072;-56
2022/05/10 05:48:38;;;;;;;6.85;6.03;;;;;;;;;;5102298;27;20542;-56
2022/05/10 05:51:17;;;;;;;7.18;6.55;;;;;;;;;;5063118;27;20589;-56
2022/05/10 05:53:57;;;;;;;7.45;6.95;;;;;;;;;;5143562;27;20534;-56
2022/05/10 05:56:37;;;;;;;6.68;6.28;;;;;;;;;;5109076;27;20689;-56
2022/05/10 05:59:17;;;;;;;7.13;6.53;;;;;;;;;;5081840;27;21028;-56
2022/05/10 06:01:57;;;;;;;7.32;6.93;;;;;;;;;;5130182;27;20612;-57
2022/05/10 06:04:37;;;;;;;6.32;5.93;;;;;;;;;;5135680;27;20886;-56
2022/05/10 06:07:18;;;;;;;5.43;5.05;;;;;;;;;;5075976;28;20649;-56
2022/05/10 06:09:58;;;;;;;5.47;5.18;;;;;;;;;;5078378;28;20696;-56
2022/05/10 06:12:39;;;;;;;4.90;4.60;;;;;;;;;;5134820;27;20591;-56
2022/05/10 06:15:20;;;;;;;5.38;5.07;;;;;;;;;;5100527;27;20564;-55
2022/05/10 06:18:04;;;;;;;5.75;5.45;;;;;;;;;;5079728;27;20566;-57
2022/05/10 06:20:44;;;;;;;5.13;4.82;;;;;;;;;;5077191;28;20780;-56
2022/05/10 06:23:23;;;;;;;5.95;5.40;;;;;;;;;;5135383;27;20617;-57
2022/05/10 06:26:03;;;;;;;5.57;5.18;;;;;;;;;;5079114;27;20588;-56
2022/05/10 06:28:43;;;;;;;5.55;5.25;;;;;;;;;;5122483;27;21188;-57
2022/05/10 06:31:23;;;;;;;6.35;5.95;;;;;;;;;;5068192;28;21101;-57
2022/05/10 06:34:06;;;;;;;6.18;5.78;;;;;;;;;;5117909;27;20553;-57
2022/05/10 06:36:46;;;;;;;6.57;5.93;;;;;;;;;;5080210;27;20555;-56
2022/05/10 06:39:26;;;;;;;6.88;6.10;;;;;;;;;;5081795;27;20536;-56
2022/05/10 06:42:06;;;;;;;6.40;5.50;;;;;;;;;;5119281;27;21648;-56
2022/05/10 06:44:45;;;;;;;5.25;4.85;;;;;;;;;;5080024;27;20586;-56
2022/05/10 06:47:25;;;;;;;5.57;5.07;;;;;;;;;;5080106;27;21932;-56
2022/05/10 06:50:06;;;;;;;5.75;5.35;;;;;;;;;;5154393;27;20589;-56
2022/05/10 06:52:47;;;;;;;5.90;5.50;;;;;;;;;;5114715;27;20540;-56
2022/05/10 06:55:27;;;;;;;5.72;5.18;;;;;;;;;;5101856;27;21020;-56
2022/05/10 06:58:06;;;;;;;6.13;5.70;;;;;;;;;;5082974;28;20605;-56
2022/05/10 07:00:47;;;;;;;5.60;5.30;;;;;;;;;;5120195;27;20972;-56
2022/05/10 07:03:28;;;;;;;5.63;5.22;;;;;;;;;;5082142;27;21039;-57
2022/05/10 07:06:10;;;;;;;5.90;5.57;;;;;;;;;;5129334;27;20673;-56
2022/05/10 07:08:50;;;;;;;6.65;6.18;;;;;;;;;;5143641;27;21046;-57
2022/05/10 07:11:30;;;;;;;5.68;5.38;;;;;;;;;;5080914;27;20664;-56
2022/05/10 07:14:10;;;;;;;6.47;6.07;;;;;;;;;;5123995;27;20685;-56
2022/05/10 07:16:50;;;;;;;5.18;4.78;;;;;;;;;;5072632;27;20597;-56
2022/05/10 07:19:29;;;;;;;5.53;5.22;;;;;;;;;;5135031;27;21274;-57
2022/05/10 07:22:11;;;;;;;6.82;6.22;;;;;;;;;;5101518;27;20566;-56
2022/05/10 07:24:51;;;;;;;5.93;5.32;;;;;;;;;;5092081;27;20605;-57
2022/05/10 07:27:31;;;;;;;4.38;4.07;;;;;;;;;;5078345;28;20692;-57
2022/05/10 07:30:11;;;;;;;4.55;3.25;;;;;;;;;;5094900;27;20924;-56
2022/05/10 07:32:52;;;;;;;3.10;2.90;;;;;;;;;;5079178;28;20663;-56
2022/05/10 07:38:31;;;;;;;3.40;3.20;;;;;;;;;;5115617;27;20593;-56
2022/05/10 07:41:12;;;;;;;3.42;3.22;;;;;;;;;;5081522;27;20604;-56
2022/05/10 07:43:52;;;;;;;3.30;3.10;;;;;;;;;;5103648;27;20545;-56
2022/05/10 07:46:32;;;;;;;2.00;1.90;;;;;;;;;;5076522;27;21205;-56
2022/05/10 07:49:11;;;;;;;3.40;3.15;;;;;;;;;;5103062;27;20550;-56
2022/05/10 07:51:51;;;;;;;3.72;3.45;;;;;;;;;;5117770;27;20569;-56
2022/05/10 07:54:31;;;;;;;3.72;3.42;;;;;;;;;;5102875;27;20534;-56
2022/05/10 07:57:11;;;;;;;6.97;4.18;;;;;;;;;;5095172;27;20607;-57
2022/05/10 07:59:51;;;;;;;3.58;3.00;;;;;;;;;;5098115;27;20599;-57
2022/05/10 08:02:31;;;;;;;4.07;3.78;;;;;;;;;;5118946;27;21138;-56
2022/05/10 08:05:11;;;;;;;4.25;3.63;;;;;;;;;;5100959;27;20553;-56
2022/05/10 08:07:52;;;;;;;4.72;3.58;;;;;;;;;;5143521;27;20538;-56
2022/05/10 08:10:32;;;;;;;4.32;3.40;;;;;;;;;;5076708;28;20670;-56
2022/05/10 08:13:12;;;;;;;3.83;3.53;;;;;;;;;;5081627;28;20688;-56
2022/05/10 08:15:54;;;;;;;4.85;3.92;;;;;;;;;;5156754;27;20544;-55
2022/05/10 08:18:36;;;;;;;3.55;3.25;;;;;;;;;;5133013;27;20574;-56
2022/05/10 08:21:17;;;;;;;4.13;3.60;;;;;;;;;;5106775;27;20627;-56
2022/05/10 08:23:57;;;;;;;4.30;3.90;;;;;;;;;;5081824;28;20564;-56
2022/05/10 08:26:37;;;;;;;4.28;3.88;;;;;;;;;;5116502;27;21130;-56
2022/05/10 08:29:17;;;;;;;4.32;4.03;;;;;;;;;;5103054;27;21306;-56
2022/05/10 08:31:58;;;;;;;4.30;3.90;;;;;;;;;;5082567;28;20563;-56
2022/05/10 08:34:38;;;;;;;5.40;3.53;;;;;;;;;;5083394;27;20695;-56
2022/05/10 08:37:18;;;;;;;4.38;3.97;;;;;;;;;;5071870;28;21057;-56
2022/05/10 08:43:03;;;;;;;4.03;3.60;;;;;;;;;;5097676;27;20564;-57
2022/05/10 08:45:45;;;;;;;3.13;2.92;;;;;;;;;;5123152;27;20535;-56
2022/05/10 08:48:26;;;;;;;4.03;3.63;;;;;;;;;;5141789;27;20607;-57
2022/05/10 08:51:06;;;;;;;3.92;3.50;;;;;;;;;;5103152;27;20557;-56
2022/05/10 08:53:46;;;;;;;5.32;3.50;;;;;;;;;;5076258;28;20702;-57
2022/05/10 08:56:28;;;;;;;5.93;3.50;;;;;;;;;;5121883;27;20611;-57
2022/05/10 08:59:14;;;;;;;4.43;3.35;;;;;;;;;;5078949;27;20576;-57
2022/05/10 09:02:04;;;;;;;4.03;3.72;;;;;;;;;;5100764;27;20555;-57
2022/05/10 09:04:53;;;;;;;3.50;3.20;;;;;;;;;;5117540;27;20568;-57
2022/05/10 09:07:38;;;;;;;3.13;2.92;;;;;;;;;;5137746;27;20597;-57
2022/05/10 09:10:20;;;;;;;3.50;3.22;;;;;;;;;;5123957;27;20552;-57
2022/05/10 09:13:03;;;;;;;3.28;3.05;;;;;;;;;;5124144;27;20539;-56
2022/05/10 09:15:49;;;;;;;2.58;2.30;;;;;;;;;;5143723;27;20542;-57
2022/05/10 09:18:33;;;;;;;5.20;3.70;;;;;;;;;;5115127;27;20544;-57
2022/05/10 09:21:18;;;;;;;3.50;3.20;;;;;;;;;;5132881;27;20556;-56
2022/05/10 09:24:08;;;;;;;3.92;3.63;;;;;;;;;;5136374;27;20544;-57
2022/05/10 09:26:48;;;;;;;3.75;3.42;;;;;;;;;;5082182;28;20593;-57
2022/05/10 09:29:33;;;;;;;3.17;2.97;;;;;;;;;;5079408;28;20675;-57
2022/05/10 09:35:14;;;;;;;2.75;1.20;;;;;;;;;;5102575;27;20603;-57
2022/05/10 09:37:56;;;;;;;4.53;3.90;;;;;;;;;;5082996;28;20598;-57
2022/05/10 09:40:37;;;;;;;3.78;3.42;;;;;;;;;;5075590;28;20689;-57
2022/05/10 09:43:22;;;;;;;4.05;3.75;;;;;;;;;;5103434;27;20549;-57
2022/05/10 09:46:12;;;;;;;4.07;3.47;;;;;;;;;;5081663;28;20572;-57
2022/05/10 09:48:53;;;;;;;5.25;3.47;;;;;;;;;;5123434;27;20544;-57
2022/05/10 09:51:36;;;;;;;3.53;3.25;;;;;;;;;;5083284;28;20576;-57
2022/05/10 09:54:20;;;;;;;4.18;3.80;;;;;;;;;;5083255;27;20565;-57
2022/05/10 09:57:00;;;;;;;3.40;3.08;;;;;;;;;;5081915;27;20560;-57
2022/05/10 09:59:46;;;;;;;3.55;3.25;;;;;;;;;;5124009;27;21061;-57
2022/05/10 10:02:31;;;;;;;4.47;4.18;;;;;;;;;;5124017;27;20564;-57
2022/05/10 10:05:22;;;;;;;3.53;3.22;;;;;;;;;;5121112;27;20533;-57
2022/05/10 10:08:02;;;;;;;4.30;4.00;;;;;;;;;;5102951;27;20545;-57
2022/05/10 10:10:42;;;;;;;4.10;3.75;;;;;;;;;;5145161;27;21078;-57
2022/05/10 10:13:30;;;;;;;3.58;3.38;;;;;;;;;;5144753;27;20603;-57
2022/05/10 10:16:17;;;;;;;3.78;3.53;;;;;;;;;;5082133;28;20629;-57
2022/05/10 10:19:00;;;;;;;3.58;3.28;;;;;;;;;;5102854;27;20599;-57
2022/05/10 10:21:42;;;;;;;2.78;2.58;;;;;;;;;;5104075;27;20622;-57
2022/05/10 10:24:24;;;;;;;4.78;3.00;;;;;;;;;;5103348;27;20542;-57
2022/05/10 10:27:07;;;;;;;2.47;2.10;;;;;;;;;;5126382;27;20958;-57
2022/05/10 10:29:49;;;;;;;3.63;3.40;;;;;;;;;;5083686;27;20576;-57
2022/05/10 10:32:33;;;;;;;3.17;2.88;;;;;;;;;;5136366;27;20689;-57
2022/05/10 10:35:17;;;;;;;4.35;3.42;;;;;;;;;;5102104;27;20549;-57
2022/05/10 10:37:58;;;;;;;3.25;3.05;;;;;;;;;;5083011;27;20540;-57
2022/05/10 10:40:40;;;;;;;3.00;2.80;;;;;;;;;;5075400;28;21207;-56
2022/05/10 10:43:23;;;;;;;5.72;3.70;;;;;;;;;;5123183;27;20540;-57
2022/05/10 10:46:08;;;;;;;2.80;2.63;;;;;;;;;;5081920;27;20564;-57
2022/05/10 10:48:49;;;;;;;2.75;2.55;;;;;;;;;;5082779;28;20597;-57
2022/05/10 10:51:29;;;;;;;2.97;2.78;;;;;;;;;;5068755;28;20564;-57
2022/05/10 10:54:16;;;;;;;2.42;1.83;;;;;;;;;;5103282;27;20623;-57
2022/05/10 10:57:00;;;;;;;2.70;2.53;;;;;;;;;;5102353;27;20856;-57
2022/05/10 10:59:58;;;;;;;3.08;2.88;;;;;;;;;;5083277;27;20569;-57
2022/05/10 11:02:56;;;;;;;3.17;2.92;;;;;;;;;;5125443;27;20576;-56
2022/05/10 11:05:59;;;;;;;3.08;2.88;;;;;;;;;;5143342;27;20542;-56
2022/05/10 11:08:51;;;;;;;3.20;3.00;;;;;;;;;;5102736;27;20541;-56
2022/05/10 11:11:37;;;;;;;3.42;3.13;;;;;;;;;;5126049;22;20608;-53
2022/05/10 11:14:23;;;;;;;3.63;2.88;;;;;;;;;;5103435;27;20537;-52
2022/05/10 11:17:09;;;;;;;3.08;2.85;;;;;;;;;;5136188;27;20605;-54
2022/05/10 11:20:04;;;;;;;2.75;2.25;;;;;;;;;;5122676;27;20536;-55
2022/05/10 11:22:50;;;;;;;2.80;2.60;;;;;;;;;;5142077;27;20767;-51
2022/05/10 11:25:36;;;;;;;5.30;3.08;;;;;;;;;;5136678;27;20590;-53
2022/05/10 11:28:31;;;;;;;4.25;3.28;;;;;;;;;;5144114;27;21320;-53
2022/05/10 11:31:17;;;;;;;2.92;2.72;;;;;;;;;;5083455;28;20680;-54
2022/05/10 11:34:01;;;;;;;3.55;2.95;;;;;;;;;;5104054;27;21061;-53
2022/05/10 11:36:43;;;;;;;4.30;2.65;;;;;;;;;;5082086;27;20555;-54
2022/05/10 11:39:33;;;;;;;3.85;3.42;;;;;;;;;;5103682;27;20619;-55
2022/05/10 11:42:21;;;;;;;5.70;3.10;;;;;;;;;;5055073;27;20619;-55
2022/05/10 11:45:36;;;;;;;2.28;2.17;;;;;;;;;;5081354;27;20573;-55
2022/05/10 11:48:34;;;;;;;2.95;2.75;;;;;;;;;;5135586;27;20675;-53
2022/05/10 11:51:42;;;;;;;3.40;3.20;;;;;;;;;;5081539;27;20695;-54
2022/05/10 11:54:42;;;;;;;2.50;2.30;;;;;;;;;;5102681;27;20542;-55
2022/05/10 11:57:22;;;;;;;2.38;2.17;;;;;;;;;;5100810;27;20546;-51
2022/05/10 12:00:20;;;;;;;2.50;2.30;;;;;;;;;;5122599;27;20540;-54
2022/05/10 12:03:00;;;;;;;2.22;2.13;;;;;;;;;;5116387;27;21098;-52
2022/05/10 12:05:41;;;;;;;4.28;2.25;;;;;;;;;;5142295;27;20607;-51
2022/05/10 12:08:37;;;;;;;3.03;2.83;;;;;;;;;;5143244;27;20543;-54
2022/05/10 12:11:34;;;;;;;2.72;2.53;;;;;;;;;;5142720;27;20534;-54
2022/05/10 12:23:59;;;;;;;2.08;1.98;;;;;;;;;;5080094;27;21374;-54
2022/05/10 12:26:43;;;;;;;4.35;2.28;;;;;;;;;;5080233;28;20546;-54
2022/05/10 12:29:35;;;;;;;2.50;2.30;;;;;;;;;;5147040;27;20546;-54
2022/05/10 12:32:31;;;;;;;2.15;2.00;;;;;;;;;;5144821;27;20889;-51
2022/05/10 12:35:13;;;;;;;2.22;2.03;;;;;;;;;;5144259;27;20542;-51
2022/05/10 12:37:59;;;;;;;5.70;2.40;;;;;;;;;;5083611;27;20535;-51
2022/05/10 12:40:51;;;;;;;2.72;2.55;;;;;;;;;;5083922;27;20553;-54
2022/05/10 12:43:55;;;;;;;2.47;2.30;;;;;;;;;;5083758;27;20580;-52
2022/05/10 12:46:41;;;;;;;2.70;2.50;;;;;;;;;;5102953;27;20538;-52
2022/05/10 12:49:36;;;;;;;2.15;2.05;;;;;;;;;;5145406;27;20542;-54
2022/05/10 12:52:21;;;;;;;2.83;2.35;;;;;;;;;;5071135;27;20558;-52
2022/05/10 12:55:06;;;;;;;5.82;2.67;;;;;;;;;;5082844;28;20554;-53
2022/05/10 12:57:49;;;;;;;3.20;2.90;;;;;;;;;;5084029;28;21025;-52
2022/05/10 13:00:30;;;;;;;2.92;2.35;;;;;;;;;;5144761;27;20542;-53
2022/05/10 13:03:12;;;;;;;2.90;2.70;;;;;;;;;;5066485;28;21151;-54
2022/05/10 13:05:59;;;;;;;2.67;2.53;;;;;;;;;;5082193;27;21026;-54
2022/05/10 13:08:50;;;;;;;2.85;2.65;;;;;;;;;;5083772;27;20939;-51
2022/05/10 13:11:32;;;;;;;2.40;2.20;;;;;;;;;;5080423;27;20557;-53
2022/05/10 13:14:12;;;;;;;2.65;2.45;;;;;;;;;;5104283;27;20666;-52
2022/05/10 13:16:53;;;;;;;3.92;2.53;;;;;;;;;;5081766;27;20553;-54
2022/05/10 13:19:38;;;;;;;2.78;2.58;;;;;;;;;;5083708;27;20584;-52
2022/05/10 13:22:20;;;;;;;2.22;2.13;;;;;;;;;;5074011;27;20582;-51
2022/05/10 13:25:05;;;;;;;2.47;2.30;;;;;;;;;;5082552;27;20589;-53
2022/05/10 13:27:46;;;;;;;2.60;2.40;;;;;;;;;;5083349;28;20668;-52
2022/05/10 13:30:26;;;;;;;3.33;2.35;;;;;;;;;;5103628;27;20541;-53
2022/05/10 13:33:07;;;;;;;2.50;2.30;;;;;;;;;;5134046;27;20563;-53
2022/05/10 13:35:49;;;;;;;2.75;2.40;;;;;;;;;;5082429;28;20867;-55
2022/05/10 13:38:32;;;;;;;2.70;2.50;;;;;;;;;;5144744;27;20534;-52
2022/05/10 13:41:13;;;;;;;2.63;2.22;;;;;;;;;;5124303;27;20548;-54
2022/05/10 13:43:54;;;;;;;3.20;2.88;;;;;;;;;;5104054;27;20550;-52
2022/05/10 13:46:40;;;;;;;2.53;2.30;;;;;;;;;;5122777;27;20536;-53
2022/05/10 13:49:20;;;;;;;2.90;2.70;;;;;;;;;;5083570;28;20956;-52
2022/05/10 13:52:03;;;;;;;2.60;2.40;;;;;;;;;;5096701;27;20555;-51
2022/05/10 13:54:55;;;;;;;2.63;2.42;;;;;;;;;;5144833;27;20539;-53
2022/05/10 13:57:36;;;;;;;11.07;3.08;;;;;;;;;;5083219;27;21010;-53
2022/05/10 14:00:18;;;;;;;2.97;2.78;;;;;;;;;;5145078;27;20542;-53
2022/05/10 14:02:59;;;;;;;3.40;2.63;;;;;;;;;;5068325;27;21098;-54
2022/05/10 14:05:39;;;;;;;4.35;2.90;;;;;;;;;;5122419;27;20547;-52
2022/05/10 14:08:20;;;;;;;2.45;2.28;;;;;;;;;;5083387;28;20978;-53
2022/05/10 14:11:08;;;;;;;2.75;2.55;;;;;;;;;;5099949;27;20541;-52
2022/05/10 14:13:51;;;;;;;2.60;2.40;;;;;;;;;;5082899;27;20591;-52
2022/05/10 14:16:33;;;;;;;3.05;2.85;;;;;;;;;;5100281;27;20549;-51
2022/05/10 14:19:21;;;;;;;3.67;2.15;;;;;;;;;;5082125;27;21141;-52
2022/05/10 14:22:04;;;;;;;2.03;1.92;;;;;;;;;;5134946;27;20623;-54
2022/05/10 14:24:45;;;;;;;2.63;2.42;;;;;;;;;;5062640;28;21062;-54
2022/05/10 14:27:26;;;;;;;2.53;2.22;;;;;;;;;;5121041;27;20625;-52
2022/05/10 14:30:20;;;;;;;2.75;2.55;;;;;;;;;;5135962;27;20860;-52
2022/05/10 14:33:01;;;;;;;3.47;2.60;;;;;;;;;;5087050;27;20618;-53
2022/05/10 14:35:41;;;;;;;2.70;2.50;;;;;;;;;;5079945;28;20584;-55
2022/05/10 14:38:24;;;;;;;2.08;1.98;;;;;;;;;;5101969;27;20599;-53
2022/05/10 14:41:06;;;;;;;4.63;2.17;;;;;;;;;;5126968;27;20976;-53
2022/05/10 14:43:46;;;;;;;2.40;2.30;;;;;;;;;;5135230;27;20635;-53
2022/05/10 14:46:31;;;;;;;3.47;1.95;;;;;;;;;;5098836;27;20870;-52
2022/05/10 14:49:11;;;;;;;2.92;1.88;;;;;;;;;;5135123;27;20592;-52
2022/05/10 14:51:51;;;;;;;2.72;2.53;;;;;;;;;;5136207;27;20970;-54
2022/05/10 14:54:37;;;;;;;2.60;2.22;;;;;;;;;;5082531;27;21027;-52
2022/05/10 14:57:21;;;;;;;3.85;2.40;;;;;;;;;;5119413;27;20540;-54
2022/05/10 15:00:18;;;;;;;2.15;2.05;;;;;;;;;;5143322;27;20951;-53
2022/05/10 15:03:11;;;;;;;2.92;2.63;;;;;;;;;;5063800;27;20553;-53
2022/05/10 15:05:54;;;;;;;3.00;2.80;;;;;;;;;;5099719;27;20559;-53
2022/05/10 15:08:34;;;;;;;2.55;2.33;;;;;;;;;;5143283;27;20542;-52
2022/05/10 15:11:14;;;;;;;4.15;2.03;;;;;;;;;;5100775;27;20677;-53
2022/05/10 15:13:54;;;;;;;2.08;1.95;;;;;;;;;;5142155;27;20534;-52
2022/05/10 15:16:41;;;;;;;2.70;2.50;;;;;;;;;;5142048;27;20563;-54
2022/05/10 15:19:22;;;;;;;2.38;2.17;;;;;;;;;;5080898;28;21100;-52
2022/05/10 15:22:02;;;;;;;3.42;2.38;;;;;;;;;;5151390;27;20540;-52
2022/05/10 15:24:42;;;;;;;2.67;2.47;;;;;;;;;;5133617;27;20598;-52
2022/05/10 15:27:22;;;;;;;3.80;2.50;;;;;;;;;;5081026;27;21084;-52
2022/05/10 15:30:05;;;;;;;2.40;2.20;;;;;;;;;;5082712;28;20539;-52
2022/05/10 15:32:44;;;;;;;2.58;2.38;;;;;;;;;;5069872;28;20697;-52
2022/05/10 15:35:24;;;;;;;3.08;2.78;;;;;;;;;;5127578;27;20667;-55
2022/05/10 15:38:04;;;;;;;2.08;1.98;;;;;;;;;;5082643;28;21036;-54
2022/05/10 15:40:44;;;;;;;2.65;2.45;;;;;;;;;;5081278;27;21060;-53
2022/05/10 15:43:24;;;;;;;2.40;2.20;;;;;;;;;;5123834;27;20555;-53
2022/05/10 15:46:04;;;;;;;2.90;2.70;;;;;;;;;;5081750;28;20687;-51
2022/05/10 15:48:46;;;;;;;3.08;2.88;;;;;;;;;;5142896;27;20669;-52
2022/05/10 15:51:26;;;;;;;3.05;2.75;;;;;;;;;;5081666;28;20535;-53
2022/05/10 15:54:06;;;;;;;2.75;2.53;;;;;;;;;;5104391;27;20681;-53
2022/05/10 15:56:46;;;;;;;2.67;2.47;;;;;;;;;;5081295;28;21188;-54
2022/05/10 15:59:26;;;;;;;2.80;2.60;;;;;;;;;;5145543;27;20534;-52
2022/05/10 16:02:06;;;;;;;2.55;2.42;;;;;;;;;;5076019;28;20846;-52
2022/05/10 16:04:45;;;;;;;2.67;2.47;;;;;;;;;;5083401;27;20564;-52
2022/05/10 16:07:25;;;;;;;2.80;2.60;;;;;;;;;;5122514;27;21048;-55
2022/05/10 16:10:05;;;;;;;2.00;1.90;;;;;;;;;;5144711;27;20547;-52
2022/05/10 16:12:45;;;;;;;4.45;3.03;;;;;;;;;;5089922;27;20699;-53
2022/05/10 16:15:26;;;;;;;2.78;2.50;;;;;;;;;;5144496;27;20539;-52
2022/05/10 16:18:09;;;;;;;2.38;2.08;;;;;;;;;;5128264;27;20667;-52
2022/05/10 16:20:51;;;;;;;3.78;3.47;;;;;;;;;;5139271;27;20582;-54
2022/05/10 16:23:30;;;;;;;4.88;2.33;;;;;;;;;;5083591;28;20608;-52
2022/05/10 16:32:02;;;;;;;2.75;2.50;;;;;;;;;;5111323;27;20552;-52
2022/05/10 16:34:42;;;;;;;2.30;2.13;;;;;;;;;;5118830;27;20448;-54
2022/05/10 16:37:24;;;;;;;2.40;2.17;;;;;;;;;;5123005;27;20540;-52
2022/05/10 16:40:03;;;;;;;2.40;2.20;;;;;;;;;;5102900;27;20430;-52